createdAt,value
2017-12-01T00:00:01.838Z,0.8
2017-12-01T00:05:02.136Z,0.8
2017-12-01T00:10:02.029Z,0.8
2017-12-01T00:15:01.406Z,0.8
2017-12-01T00:20:01.423Z,0.8
2017-12-01T00:25:01.721Z,0.8
2017-12-01T00:30:01.551Z,0.8
2017-12-01T00:35:01.504Z,0.8
2017-12-01T00:40:01.776Z,0.8
2017-12-01T00:45:02.162Z,0.7
2017-12-01T00:50:01.921Z,0.7
2017-12-01T00:55:01.782Z,0.7
2017-12-01T01:00:01.626Z,0.7
2017-12-01T01:05:01.944Z,0.7
2017-12-01T01:10:02.223Z,0.7
2017-12-01T01:15:02.110Z,0.7
2017-12-01T01:20:01.827Z,0.7
2017-12-01T01:25:01.970Z,0.7
2017-12-01T01:30:02.355Z,0.7
2017-12-01T01:35:01.962Z,0.8
2017-12-01T01:40:01.888Z,0.8
2017-12-01T01:45:01.715Z,0.8
2017-12-01T01:50:01.894Z,0.8
2017-12-01T01:55:01.477Z,0.8
2017-12-01T02:00:01.379Z,0.8
2017-12-01T02:05:02.203Z,0.8
2017-12-01T02:10:01.923Z,0.8
2017-12-01T02:15:01.912Z,0.8
2017-12-01T02:20:01.646Z,0.8
2017-12-01T02:25:01.961Z,0.8
2017-12-01T02:30:01.804Z,0.8
2017-12-01T02:35:01.476Z,0.8
2017-12-01T02:40:01.572Z,0.8
2017-12-01T02:45:01.399Z,0.8
2017-12-01T02:50:01.256Z,0.9
2017-12-01T02:55:02.221Z,0.9
2017-12-01T03:00:01.204Z,0.9
2017-12-01T03:05:01.719Z,0.9
2017-12-01T03:10:01.864Z,0.9
2017-12-01T03:15:02.081Z,0.9
2017-12-01T03:20:02.047Z,0.9
2017-12-01T03:25:01.991Z,0.9
2017-12-01T03:30:01.925Z,0.9
2017-12-01T03:35:02.433Z,0.9
2017-12-01T03:40:02.001Z,0.9
2017-12-01T03:45:01.968Z,0.9
2017-12-01T03:50:01.578Z,0.9
2017-12-01T03:55:01.456Z,0.9
2017-12-01T04:00:01.597Z,0.9
2017-12-01T04:05:02.057Z,0.9
2017-12-01T04:10:02.527Z,0.9
2017-12-01T04:15:02.011Z,0.9
2017-12-01T04:20:02.161Z,0.9
2017-12-01T04:25:01.974Z,0.9
2017-12-01T04:30:01.699Z,0.9
2017-12-01T04:35:01.639Z,0.9
2017-12-01T04:40:01.673Z,0.9
2017-12-01T04:45:02.047Z,0.9
2017-12-01T04:50:02.022Z,1.2
2017-12-01T04:55:02.080Z,1.2
2017-12-01T05:00:01.313Z,1.2
2017-12-01T05:05:02.095Z,1.2
2017-12-01T05:10:01.824Z,1.2
2017-12-01T05:15:02.126Z,1.2
2017-12-01T05:20:01.843Z,1.2
2017-12-01T05:25:01.786Z,1.5
2017-12-01T05:30:01.612Z,1.5
2017-12-01T05:35:01.470Z,1.5
2017-12-01T05:40:01.679Z,1.5
2017-12-01T05:45:01.321Z,1.5
2017-12-01T05:50:01.978Z,1.5
2017-12-01T05:55:02.316Z,1.5
2017-12-01T06:00:01.378Z,1.8
2017-12-01T06:05:01.476Z,1.8
2017-12-01T06:10:01.383Z,1.8
2017-12-01T06:15:01.981Z,1.8
2017-12-01T06:20:01.949Z,1.8
2017-12-01T06:25:01.711Z,1.8
2017-12-01T06:30:02.529Z,1.8
2017-12-01T06:35:01.380Z,1.8
2017-12-01T06:40:01.222Z,1.8
2017-12-01T06:45:01.730Z,1.8
2017-12-01T06:50:02.446Z,1.8
2017-12-01T06:55:01.516Z,1.8
2017-12-01T07:00:01.696Z,1.8
2017-12-01T07:05:01.429Z,1.8
2017-12-01T07:10:01.635Z,1.9
2017-12-01T07:15:01.500Z,1.9
2017-12-01T07:20:01.743Z,1.9
2017-12-01T07:25:01.568Z,1.9
2017-12-01T07:30:01.622Z,1.9
2017-12-01T07:35:01.601Z,1.9
2017-12-01T07:40:02.031Z,1.8
2017-12-01T07:45:02.051Z,1.8
2017-12-01T07:50:01.330Z,1.8
2017-12-01T07:55:01.917Z,1.8
2017-12-01T08:00:02.005Z,1.7
2017-12-01T08:05:01.637Z,1.7
2017-12-01T08:10:02.361Z,1.6
2017-12-01T08:15:01.489Z,1.6
2017-12-01T08:20:01.383Z,1.6
2017-12-01T08:25:01.268Z,1.6
2017-12-01T08:30:02.012Z,1.6
2017-12-01T08:35:01.878Z,1.6
2017-12-01T08:40:01.726Z,1.6
2017-12-01T08:45:01.726Z,1.6
2017-12-01T08:50:01.748Z,1.6
2017-12-01T08:55:01.261Z,1.6
2017-12-01T09:00:01.810Z,1.6
2017-12-01T09:05:01.895Z,1.6
2017-12-01T09:10:01.818Z,1.6
2017-12-01T09:15:01.509Z,1.6
2017-12-01T09:20:01.218Z,1.5
2017-12-01T09:25:01.217Z,1.5
2017-12-01T09:30:01.823Z,1.5
2017-12-01T09:35:01.945Z,1.5
2017-12-01T09:40:01.781Z,1.6
2017-12-01T09:45:02.198Z,1.6
2017-12-01T09:50:01.247Z,1.6
2017-12-01T09:55:02.105Z,1.8
2017-12-01T10:00:01.746Z,1.9
2017-12-01T10:05:02.659Z,1.9
2017-12-01T10:10:02.103Z,2
2017-12-01T10:15:01.258Z,2.1
2017-12-01T10:20:01.290Z,2.2
2017-12-01T10:25:02.283Z,2.3
2017-12-01T10:30:01.535Z,2.3
2017-12-01T10:35:01.912Z,2.4
2017-12-01T10:40:01.756Z,2.5
2017-12-01T10:45:02.544Z,2.6
2017-12-01T10:50:01.206Z,2.7
2017-12-01T10:55:01.498Z,2.8
2017-12-01T11:00:01.955Z,2.9
2017-12-01T11:05:02.397Z,2.9
2017-12-01T11:10:01.933Z,2.9
2017-12-01T11:15:02.006Z,3.1
2017-12-01T11:20:01.862Z,3.1
2017-12-01T11:25:02.630Z,3.1
2017-12-01T11:30:02.067Z,3.3
2017-12-01T11:35:01.194Z,3.4
2017-12-01T11:40:02.037Z,3.5
2017-12-01T11:45:01.800Z,3.5
2017-12-01T11:50:02.061Z,3.5
2017-12-01T11:55:01.356Z,3.5
2017-12-01T12:00:02.267Z,3.4
2017-12-01T12:05:01.503Z,3.4
2017-12-01T12:10:01.468Z,3.4
2017-12-01T12:15:01.538Z,3.4
2017-12-01T12:20:01.792Z,3.4
2017-12-01T12:25:01.189Z,3.4
2017-12-01T12:30:01.692Z,3.4
2017-12-01T12:35:01.784Z,3.5
2017-12-01T12:40:01.650Z,3.5
2017-12-01T12:45:01.594Z,3.6
2017-12-01T12:50:02.107Z,3.6
2017-12-01T12:55:02.175Z,3.7
2017-12-01T13:00:01.514Z,3.7
2017-12-01T13:05:01.391Z,3.7
2017-12-01T13:10:01.744Z,3.8
2017-12-01T13:15:02.105Z,3.8
2017-12-01T13:20:02.168Z,3.8
2017-12-01T13:25:01.932Z,3.8
2017-12-01T13:30:02.139Z,3.8
2017-12-01T13:35:02.220Z,3.7
2017-12-01T13:40:01.332Z,3.7
2017-12-01T13:45:01.201Z,3.7
2017-12-01T13:50:02.248Z,3.6
2017-12-01T13:55:01.945Z,3.5
2017-12-01T14:00:01.516Z,3.5
2017-12-01T14:05:02.144Z,3.5
2017-12-01T14:10:02.569Z,3.5
2017-12-01T14:15:02.219Z,3.4
2017-12-01T14:20:01.199Z,3.4
2017-12-01T14:25:03.011Z,3.4
2017-12-01T14:30:01.241Z,3.2
2017-12-01T14:35:01.833Z,3.2
2017-12-01T14:40:01.964Z,3.2
2017-12-01T14:45:02.516Z,3.1
2017-12-01T14:50:02.173Z,3.1
2017-12-01T14:55:01.445Z,3
2017-12-01T15:00:01.723Z,3
2017-12-01T15:05:01.869Z,2.9
2017-12-01T15:10:02.358Z,2.9
2017-12-01T15:15:01.679Z,2.9
2017-12-01T15:20:02.382Z,2.9
2017-12-01T15:25:01.308Z,2.9
2017-12-01T15:30:01.452Z,2.8
2017-12-01T15:35:01.511Z,2.7
2017-12-01T15:40:02.542Z,2.7
2017-12-01T15:45:01.514Z,2.7
2017-12-01T15:50:01.592Z,2.7
2017-12-01T15:55:01.348Z,2.7
2017-12-01T16:00:02.494Z,2.7
2017-12-01T16:05:01.224Z,2.7
2017-12-01T16:10:01.351Z,2.7
2017-12-01T16:15:02.494Z,2.7
2017-12-01T16:20:01.285Z,2.7
2017-12-01T16:25:01.618Z,2.7
2017-12-01T16:30:01.908Z,2.7
2017-12-01T16:35:02.027Z,2.7
2017-12-01T16:40:01.342Z,2.7
2017-12-01T16:45:01.280Z,2.7
2017-12-01T16:50:01.924Z,2.7
2017-12-01T16:55:01.843Z,2.7
2017-12-01T17:00:01.671Z,1.3
2017-12-01T17:05:02.278Z,1.3
2017-12-01T17:10:01.366Z,1.3
2017-12-01T17:15:01.719Z,1.3
2017-12-01T17:20:02.724Z,0.8
2017-12-01T17:25:02.003Z,0.7
2017-12-01T17:30:01.669Z,0.7
2017-12-01T17:35:02.679Z,0.7
2017-12-01T17:40:02.193Z,0.3
2017-12-01T17:45:01.676Z,0.2
2017-12-01T17:50:01.927Z,0.2
2017-12-01T17:55:01.554Z,0.2
2017-12-01T18:00:01.367Z,-0.2
2017-12-01T18:05:01.362Z,-0.2
2017-12-01T18:10:01.929Z,-0.3
2017-12-01T18:15:01.726Z,-0.4
2017-12-01T18:20:01.919Z,-0.4
2017-12-01T18:25:02.525Z,-0.4
2017-12-01T18:30:01.643Z,-0.4
2017-12-01T18:35:01.905Z,-0.4
2017-12-01T18:40:02.424Z,-0.3
2017-12-01T18:45:01.873Z,-0.3
2017-12-01T18:50:01.888Z,-0.2
2017-12-01T18:55:01.296Z,-0.2
2017-12-01T19:00:02.485Z,-0.2
2017-12-01T19:05:01.604Z,-0.2
2017-12-01T19:10:02.223Z,-0.2
2017-12-01T19:15:01.669Z,0.1
2017-12-01T19:20:02.745Z,0.1
2017-12-01T19:25:01.715Z,0.2
2017-12-01T19:30:01.919Z,0.2
2017-12-01T19:35:01.834Z,0.3
2017-12-01T19:40:02.016Z,0.3
2017-12-01T19:45:01.858Z,0.3
2017-12-01T19:50:02.005Z,0.3
2017-12-01T19:55:02.005Z,0.3
2017-12-01T20:00:01.862Z,0.2
2017-12-01T20:05:01.281Z,0.2
2017-12-01T20:10:02.592Z,0.2
2017-12-01T20:15:01.802Z,0.2
2017-12-01T20:20:01.832Z,0.2
2017-12-01T20:25:01.573Z,0.2
2017-12-01T20:30:02.785Z,0.1
2017-12-01T20:35:01.887Z,0.1
2017-12-01T20:40:01.957Z,0.1
2017-12-01T20:45:02.916Z,0.1
2017-12-01T20:50:02.378Z,0.1
2017-12-01T20:55:01.724Z,0.1
2017-12-01T21:00:01.817Z,0.2
2017-12-01T21:05:02.024Z,0.2
2017-12-01T21:10:02.127Z,0.2
2017-12-01T21:15:02.298Z,0.2
2017-12-01T21:20:03.220Z,0.2
2017-12-01T21:25:01.381Z,0.2
2017-12-01T21:30:01.942Z,0.1
2017-12-01T21:35:01.761Z,0.1
2017-12-01T21:40:02.317Z,0.1
2017-12-01T21:45:01.733Z,0.1
2017-12-01T21:50:02.046Z,0.2
2017-12-01T21:55:01.975Z,0.2
2017-12-01T22:00:02.414Z,0.2
2017-12-01T22:05:01.648Z,0.2
2017-12-01T22:10:02.008Z,0.2
2017-12-01T22:15:02.193Z,0.2
2017-12-01T22:20:02.205Z,0.3
2017-12-01T22:25:01.554Z,0.3
2017-12-01T22:30:01.696Z,0.3
2017-12-01T22:35:01.557Z,0.3
2017-12-01T22:40:01.907Z,0.3
2017-12-01T22:45:01.807Z,0.3
2017-12-01T22:50:02.728Z,0.3
2017-12-01T22:55:01.738Z,0.4
2017-12-01T23:00:02.379Z,0.4
2017-12-01T23:05:02.000Z,0.4
2017-12-01T23:10:01.552Z,0.4
2017-12-01T23:15:01.631Z,0.5
2017-12-01T23:20:06.306Z,0.5
2017-12-01T23:25:03.118Z,0.5
2017-12-01T23:30:01.579Z,0.5
2017-12-01T23:35:01.451Z,0.5
2017-12-01T23:40:01.798Z,0.5
2017-12-01T23:45:01.962Z,0.5
2017-12-01T23:50:02.057Z,0.5
2017-12-01T23:55:02.040Z,0.5
